Time;durP1;ratioP1;P1;durP2;ratioP2;P2;SDS_P1;SDS_P2;PMS_P1;PMS_P2;Temp;Humidity;BMP_temperature;BMP_pressure;BME280_temperature;BME280_humidity;BME280_pressure;Samples;Min_cycle;Max_cycle;Signal;HPM_P1;HPM_P2
2022/11/19 00:01:23;;;;;;;12.33;8.87;;;8.20;99.90;;;;;;5116366;28;20167;-86
2022/11/19 00:03:52;;;;;;;10.13;8.00;;;8.20;99.90;;;;;;5115090;28;20257;-86
2022/11/19 00:06:21;;;;;;;9.93;7.97;;;8.20;99.90;;;;;;5098732;28;20178;-86
2022/11/19 00:08:47;;;;;;;10.13;8.20;;;8.20;99.90;;;;;;5120481;28;20182;-85
2022/11/19 00:12:53;;;;;;;9.57;7.60;;;8.10;99.90;;;;;;5136259;28;20170;-84
2022/11/19 00:14:08;;;;;;;10.20;8.23;;;8.10;99.90;;;;;;5126690;28;20161;-85
2022/11/19 00:16:34;;;;;;;9.50;7.40;;;8.10;99.90;;;;;;5101841;28;20174;-84
2022/11/19 00:19:01;;;;;;;8.83;7.50;;;8.10;99.90;;;;;;5100267;28;20225;-86
2022/11/19 00:21:26;;;;;;;11.17;8.37;;;8.00;99.90;;;;;;5136065;28;20174;-84
2022/11/19 00:23:53;;;;;;;9.27;7.27;;;8.00;99.90;;;;;;5125900;28;20223;-84
2022/11/19 00:26:24;;;;;;;8.30;6.93;;;8.00;99.90;;;;;;5102842;28;20182;-87
2022/11/19 00:28:50;;;;;;;9.80;7.93;;;8.00;99.90;;;;;;5099951;28;20178;-85
2022/11/19 00:31:16;;;;;;;9.80;7.57;;;8.10;99.90;;;;;;5120468;28;20517;-85
2022/11/19 00:33:44;;;;;;;7.53;6.73;;;8.10;99.90;;;;;;5103910;28;20583;-86
2022/11/19 00:36:17;;;;;;;8.40;7.10;;;8.00;99.90;;;;;;5102666;28;20175;-86
2022/11/19 00:38:43;;;;;;;7.67;6.67;;;7.90;99.90;;;;;;5100627;28;20222;-86
2022/11/19 00:41:09;;;;;;;9.60;7.37;;;7.90;99.90;;;;;;5101275;28;20185;-84
2022/11/19 00:46:33;;;;;;;7.63;6.83;;;8.00;99.90;;;;;;5078097;28;20188;-85
2022/11/19 00:48:59;;;;;;;8.10;6.73;;;8.10;99.90;;;;;;5060765;28;20188;-84
2022/11/19 00:51:28;;;;;;;7.90;6.93;;;8.10;99.90;;;;;;5091061;28;20205;-85
2022/11/19 00:53:54;;;;;;;7.20;6.50;;;8.10;99.90;;;;;;5069618;28;20190;-83
2022/11/19 00:56:22;;;;;;;7.57;6.73;;;8.10;99.90;;;;;;5079823;28;20182;-86
2022/11/19 00:58:48;;;;;;;10.43;7.20;;;8.10;99.90;;;;;;5074847;28;20234;-86
2022/11/19 01:01:16;;;;;;;8.83;7.47;;;8.00;99.90;;;;;;5074447;28;20749;-85
2022/11/19 01:03:44;;;;;;;7.87;7.07;;;8.10;99.90;;;;;;5074796;28;20172;-86
2022/11/19 01:06:13;;;;;;;8.23;7.13;;;8.20;99.90;;;;;;5057610;28;20301;-85
2022/11/19 01:08:39;;;;;;;8.57;6.97;;;8.10;99.90;;;;;;5075615;28;20178;-85
2022/11/19 01:11:07;;;;;;;8.20;7.37;;;8.20;99.90;;;;;;5075610;28;20256;-85
2022/11/19 01:13:34;;;;;;;8.70;7.10;;;8.20;99.90;;;;;;5074292;28;20265;-85
2022/11/19 01:16:02;;;;;;;9.13;7.53;;;8.20;99.90;;;;;;5085718;28;20598;-85
2022/11/19 01:18:28;;;;;;;8.23;6.73;;;8.10;99.90;;;;;;5093845;28;20174;-85
2022/11/19 01:20:55;;;;;;;8.90;7.97;;;8.00;99.90;;;;;;5095508;28;20713;-85
2022/11/19 01:23:21;;;;;;;8.23;7.43;;;8.10;99.90;;;;;;5099365;28;20175;-85
2022/11/19 01:25:47;;;;;;;9.10;7.60;;;8.20;99.90;;;;;;5097822;28;20189;-85
2022/11/19 01:28:12;;;;;;;9.00;7.30;;;8.20;99.90;;;;;;5099128;28;20244;-85
2022/11/19 01:30:41;;;;;;;7.83;7.00;;;8.20;99.90;;;;;;5095795;28;20273;-85
2022/11/19 01:33:07;;;;;;;8.37;6.83;;;8.20;99.90;;;;;;5096714;28;20171;-85
2022/11/19 01:35:36;;;;;;;10.03;7.23;;;8.20;99.90;;;;;;5095433;28;20170;-85
2022/11/19 01:38:03;;;;;;;10.80;8.03;;;8.10;99.90;;;;;;5104022;28;20320;-86
2022/11/19 01:40:29;;;;;;;9.67;7.43;;;8.10;99.90;;;;;;5122293;28;20208;-86
2022/11/19 01:42:55;;;;;;;8.53;7.20;;;8.10;99.90;;;;;;5122853;28;20177;-85
2022/11/19 01:45:24;;;;;;;8.80;6.97;;;8.10;99.90;;;;;;5100330;28;20211;-85
2022/11/19 01:47:52;;;;;;;8.73;7.07;;;8.20;99.90;;;;;;5099212;28;20234;-87
2022/11/19 01:50:18;;;;;;;9.77;7.37;;;8.20;99.90;;;;;;5101222;28;20198;-85
2022/11/19 01:52:44;;;;;;;8.57;7.20;;;8.10;99.90;;;;;;5112594;28;20188;-85
2022/11/19 01:55:10;;;;;;;8.47;7.07;;;8.10;99.90;;;;;;5118475;28;20175;-86
2022/11/19 01:57:40;;;;;;;9.23;7.20;;;8.10;99.90;;;;;;5098386;28;20170;-85
2022/11/19 02:00:07;;;;;;;7.90;6.90;;;8.10;99.90;;;;;;5116861;28;20224;-87
2022/11/19 02:02:33;;;;;;;8.20;6.83;;;8.10;99.90;;;;;;5098092;28;20222;-85
2022/11/19 02:05:00;;;;;;;7.80;6.90;;;8.20;99.90;;;;;;5098293;28;20269;-84
2022/11/19 02:07:30;;;;;;;9.30;7.10;;;8.20;99.90;;;;;;5099798;28;20204;-85
2022/11/19 02:09:57;;;;;;;8.00;7.00;;;8.20;99.90;;;;;;5098099;28;20718;-86
2022/11/19 02:12:33;;;;;;;8.43;6.67;;;8.10;99.90;;;;;;5116322;28;20173;-86
2022/11/19 02:15:14;;;;;;;8.00;7.10;;;8.10;99.90;;;;;;5098284;28;20257;-86
2022/11/19 02:17:42;;;;;;;10.90;6.87;;;8.10;99.90;;;;;;5116390;28;20258;-86
2022/11/19 02:20:53;;;;;;;9.67;7.47;;;8.10;99.90;;;;;;5098219;28;20213;-87
2022/11/19 02:23:40;;;;;;;9.83;7.17;;;8.10;99.90;;;;;;5071219;28;20246;-86
2022/11/19 02:26:42;;;;;;;11.63;7.50;;;8.00;99.90;;;;;;5117355;28;20172;-86
2022/11/19 02:29:29;;;;;;;9.47;7.40;;;8.00;99.90;;;;;;5116158;28;20252;-86
2022/11/19 02:32:17;;;;;;;10.93;7.50;;;8.00;99.90;;;;;;5116017;28;20218;-85
2022/11/19 02:34:52;;;;;;;7.37;6.47;;;8.00;99.90;;;;;;5100884;28;20185;-86
2022/11/19 02:37:28;;;;;;;8.13;6.70;;;8.10;99.90;;;;;;5106890;28;20184;-86
2022/11/19 02:40:19;;;;;;;7.70;6.67;;;8.10;99.90;;;;;;5103532;28;20225;-86
2022/11/19 02:42:58;;;;;;;8.83;7.30;;;8.00;99.90;;;;;;5111486;28;20196;-84
2022/11/19 02:46:09;;;;;;;8.73;6.77;;;8.00;99.90;;;;;;5135088;28;20169;-85
2022/11/19 02:48:48;;;;;;;7.73;6.80;;;7.90;99.90;;;;;;5115842;28;20188;-85
2022/11/19 02:51:15;;;;;;;8.87;7.23;;;7.80;99.90;;;;;;5115081;28;20663;-84
2022/11/19 02:53:41;;;;;;;8.17;6.60;;;7.70;99.90;;;;;;5115139;28;20175;-85
2022/11/19 02:56:44;;;;;;;9.93;7.27;;;7.50;99.90;;;;;;5096940;28;20172;-86
2022/11/19 03:04:43;;;;;;;9.93;7.80;;;7.50;99.90;;;;;;5114646;28;20215;-86
2022/11/19 03:07:16;;;;;;;9.87;6.57;;;7.50;99.90;;;;;;5114639;28;20168;-86
2022/11/19 03:09:47;;;;;;;8.20;7.23;;;7.50;99.90;;;;;;5115103;28;20245;-85
2022/11/19 03:12:34;;;;;;;8.83;6.80;;;7.50;99.90;;;;;;5130112;28;20148;-84
2022/11/19 03:18:22;;;;;;;8.07;6.63;;;7.60;99.90;;;;;;5114953;28;20213;-84
2022/11/19 03:21:06;;;;;;;8.17;6.90;;;7.70;99.90;;;;;;5114533;28;20199;-85
2022/11/19 03:23:39;;;;;;;7.97;6.93;;;7.70;99.90;;;;;;5116521;28;20173;-83
2022/11/19 03:26:10;;;;;;;8.63;7.37;;;7.70;99.90;;;;;;5119614;28;20165;-84
2022/11/19 03:28:37;;;;;;;10.20;7.97;;;7.60;99.90;;;;;;5120870;28;20201;-85
2022/11/19 03:31:04;;;;;;;9.43;7.40;;;7.70;99.90;;;;;;5097297;28;20179;-86
2022/11/19 03:33:37;;;;;;;11.00;7.93;;;7.70;99.90;;;;;;5096147;28;20208;-84
2022/11/19 03:36:24;;;;;;;10.93;8.00;;;7.70;99.90;;;;;;5096530;28;20176;-85
2022/11/19 03:38:55;;;;;;;11.97;8.10;;;7.70;99.90;;;;;;5114931;28;20224;-86
2022/11/19 03:41:23;;;;;;;11.27;8.00;;;7.70;99.90;;;;;;5096066;28;20638;-85
2022/11/19 03:43:56;;;;;;;10.90;7.93;;;7.70;99.90;;;;;;5114359;28;20192;-84
2022/11/19 03:46:25;;;;;;;9.63;7.27;;;7.60;99.90;;;;;;5114350;28;20167;-85
2022/11/19 03:48:53;;;;;;;11.00;7.67;;;7.60;99.90;;;;;;5096105;28;20166;-84
2022/11/19 03:51:37;;;;;;;8.63;7.10;;;7.60;99.90;;;;;;5114871;28;20173;-85
2022/11/19 03:54:03;;;;;;;8.57;6.77;;;7.70;99.90;;;;;;5116370;28;20165;-87
2022/11/19 03:56:33;;;;;;;9.10;6.53;;;7.70;99.90;;;;;;5102198;28;20180;-86
2022/11/19 03:58:59;;;;;;;7.40;6.53;;;7.70;99.90;;;;;;5098700;28;20190;-86
2022/11/19 04:01:25;;;;;;;7.77;6.07;;;7.80;99.90;;;;;;5114768;28;20179;-85
2022/11/19 04:06:35;;;;;;;8.50;6.70;;;7.70;99.90;;;;;;5115254;28;20167;-83
2022/11/19 04:09:01;;;;;;;9.00;7.10;;;7.70;99.90;;;;;;5097048;28;20177;-84
2022/11/19 04:11:27;;;;;;;9.37;7.70;;;7.70;99.90;;;;;;5096038;28;20592;-84
2022/11/19 04:13:53;;;;;;;8.17;6.83;;;7.70;99.90;;;;;;5096788;28;20742;-83
2022/11/19 04:16:18;;;;;;;9.03;7.10;;;7.70;99.90;;;;;;5118268;28;20206;-85
2022/11/19 04:18:44;;;;;;;8.03;7.17;;;7.60;99.90;;;;;;5102529;28;20283;-85
2022/11/19 04:21:10;;;;;;;7.77;6.93;;;7.60;99.90;;;;;;5116207;28;20188;-86
2022/11/19 04:23:36;;;;;;;9.00;7.17;;;7.70;99.90;;;;;;5115353;28;20178;-86
2022/11/19 04:26:02;;;;;;;9.27;7.77;;;7.70;99.90;;;;;;5116056;28;20189;-85
2022/11/19 04:28:27;;;;;;;9.23;7.10;;;7.70;99.90;;;;;;5097206;28;20196;-85
2022/11/19 04:30:53;;;;;;;10.40;7.87;;;7.70;99.90;;;;;;5098945;28;20525;-85
2022/11/19 04:33:19;;;;;;;7.53;6.73;;;7.70;99.90;;;;;;5099529;28;20186;-84
2022/11/19 04:35:45;;;;;;;9.97;7.80;;;7.70;99.90;;;;;;5118780;28;20220;-84
2022/11/19 04:38:11;;;;;;;8.43;6.77;;;7.70;99.90;;;;;;5119070;27;20249;-85
2022/11/19 04:40:38;;;;;;;8.80;7.40;;;7.70;99.90;;;;;;5107834;28;20207;-85
2022/11/19 04:43:04;;;;;;;9.13;7.23;;;7.70;99.90;;;;;;5125342;28;20195;-85
2022/11/19 04:45:30;;;;;;;10.33;7.50;;;7.80;99.90;;;;;;5106188;28;20182;-86
2022/11/19 04:47:56;;;;;;;8.47;7.57;;;7.70;99.90;;;;;;5114528;28;20253;-85
2022/11/19 04:50:22;;;;;;;9.63;7.67;;;7.70;99.90;;;;;;5096003;28;20273;-85
2022/11/19 04:52:48;;;;;;;9.27;7.20;;;7.60;99.90;;;;;;5096805;28;20178;-87
2022/11/19 04:55:14;;;;;;;9.13;7.83;;;7.50;99.90;;;;;;5139346;27;20210;-87
2022/11/19 04:57:40;;;;;;;7.77;6.93;;;7.60;99.90;;;;;;5101197;28;20622;-85
2022/11/19 05:00:06;;;;;;;8.63;7.13;;;7.60;99.90;;;;;;5117816;28;20205;-85
2022/11/19 05:02:32;;;;;;;10.00;8.00;;;7.70;99.90;;;;;;5117698;28;20233;-86
2022/11/19 05:04:58;;;;;;;8.57;7.40;;;7.70;99.90;;;;;;5103194;28;20236;-85
2022/11/19 05:07:27;;;;;;;9.50;6.83;;;7.70;99.90;;;;;;5120525;28;20185;-85
2022/11/19 05:09:53;;;;;;;8.80;7.30;;;7.70;99.90;;;;;;5127400;28;20507;-85
2022/11/19 05:12:22;;;;;;;9.77;7.90;;;7.70;99.90;;;;;;5119577;28;20174;-86
2022/11/19 05:14:47;;;;;;;9.73;7.10;;;7.70;99.90;;;;;;5117271;28;20247;-87
2022/11/19 05:17:13;;;;;;;10.43;7.80;;;7.70;99.90;;;;;;5099425;28;20175;-86
2022/11/19 05:19:42;;;;;;;11.30;7.47;;;7.80;99.90;;;;;;5117054;28;20206;-86
2022/11/19 05:22:10;;;;;;;8.87;7.30;;;7.80;99.90;;;;;;5116830;28;20297;-87
2022/11/19 05:24:37;;;;;;;8.70;7.67;;;7.80;99.90;;;;;;5118762;28;20277;-85
2022/11/19 05:27:03;;;;;;;8.50;6.97;;;7.80;99.90;;;;;;5117465;28;20166;-85
2022/11/19 05:29:28;;;;;;;9.10;7.60;;;7.80;99.90;;;;;;5098922;28;20181;-86
2022/11/19 05:31:54;;;;;;;10.33;7.17;;;7.80;99.90;;;;;;5102358;28;20174;-87
2022/11/19 05:34:20;;;;;;;7.83;6.97;;;7.80;99.90;;;;;;5109415;28;20203;-84
2022/11/19 05:36:46;;;;;;;9.13;7.47;;;7.80;99.90;;;;;;5118262;28;20162;-85
2022/11/19 05:39:12;;;;;;;8.10;6.97;;;7.80;99.90;;;;;;5094199;28;20612;-85
2022/11/19 05:41:38;;;;;;;9.60;7.47;;;7.90;99.90;;;;;;5095774;28;20171;-85
2022/11/19 05:44:04;;;;;;;8.57;7.23;;;7.80;99.90;;;;;;5098326;28;20272;-84
2022/11/19 05:46:30;;;;;;;11.77;7.80;;;7.90;99.90;;;;;;5097095;28;20159;-87
2022/11/19 05:48:55;;;;;;;8.23;7.00;;;7.90;99.90;;;;;;5098386;28;20626;-85
2022/11/19 05:51:21;;;;;;;9.60;7.53;;;7.80;99.90;;;;;;5094765;28;20254;-85
2022/11/19 05:53:47;;;;;;;9.63;7.57;;;7.80;99.90;;;;;;5096684;28;20174;-85
2022/11/19 05:56:13;;;;;;;9.73;7.43;;;7.90;99.90;;;;;;5096300;28;20174;-86
2022/11/19 05:58:39;;;;;;;12.80;7.90;;;7.90;99.90;;;;;;5098143;28;20176;-85
2022/11/19 06:01:05;;;;;;;11.10;7.73;;;7.90;99.90;;;;;;5102020;28;20185;-85
2022/11/19 06:03:31;;;;;;;8.63;6.93;;;7.90;99.90;;;;;;5097220;28;20695;-84
2022/11/19 06:05:56;;;;;;;10.27;7.57;;;7.90;99.90;;;;;;5093865;28;20207;-85
2022/11/19 06:08:22;;;;;;;9.67;8.27;;;7.90;99.90;;;;;;5094297;28;20179;-85
2022/11/19 06:10:48;;;;;;;8.97;7.77;;;7.90;99.90;;;;;;5096374;28;20525;-87
2022/11/19 06:13:14;;;;;;;8.57;7.67;;;7.90;99.90;;;;;;5100281;28;20175;-84
2022/11/19 06:15:40;;;;;;;7.70;6.80;;;7.80;99.90;;;;;;5102900;28;20198;-85
2022/11/19 06:18:06;;;;;;;8.30;6.80;;;7.80;99.90;;;;;;5096464;28;20706;-85
2022/11/19 06:20:31;;;;;;;10.53;7.20;;;7.90;99.90;;;;;;5095909;28;20214;-84
2022/11/19 06:22:57;;;;;;;8.80;7.40;;;7.90;99.90;;;;;;5097969;28;20179;-85
2022/11/19 06:25:23;;;;;;;9.97;7.40;;;7.80;99.90;;;;;;5105807;28;20554;-85
2022/11/19 06:27:49;;;;;;;7.97;6.70;;;7.80;99.90;;;;;;5107816;28;20175;-84
2022/11/19 06:30:15;;;;;;;9.57;7.40;;;7.80;99.90;;;;;;5101527;28;20179;-85
2022/11/19 06:32:42;;;;;;;9.00;6.97;;;7.80;99.90;;;;;;5115414;28;20661;-85
2022/11/19 06:35:09;;;;;;;9.40;7.53;;;7.70;99.90;;;;;;5104836;28;20179;-85
2022/11/19 06:37:35;;;;;;;9.17;7.27;;;7.80;99.90;;;;;;5096995;28;20183;-85
2022/11/19 06:40:04;;;;;;;9.87;7.73;;;7.80;99.90;;;;;;5120073;28;20207;-85
2022/11/19 06:42:36;;;;;;;8.97;7.03;;;7.80;99.90;;;;;;5103345;28;20206;-84
2022/11/19 06:45:07;;;;;;;8.83;7.23;;;7.90;99.90;;;;;;5119135;28;20166;-84
2022/11/19 06:47:33;;;;;;;9.37;7.40;;;7.90;99.90;;;;;;5097130;28;20185;-84
2022/11/19 06:49:58;;;;;;;9.30;8.00;;;7.90;99.90;;;;;;5116050;28;20182;-87
2022/11/19 06:52:25;;;;;;;10.13;7.97;;;8.00;99.90;;;;;;5115743;28;20663;-86
2022/11/19 06:54:51;;;;;;;9.00;7.80;;;8.00;99.90;;;;;;5115848;28;20177;-84
2022/11/19 06:57:16;;;;;;;7.90;7.10;;;7.90;99.90;;;;;;5097106;28;20174;-84
2022/11/19 06:59:42;;;;;;;10.03;7.13;;;8.00;99.90;;;;;;5115820;28;20213;-86
2022/11/19 07:02:10;;;;;;;7.77;6.87;;;8.00;99.90;;;;;;5115196;28;20644;-86
2022/11/19 07:04:36;;;;;;;8.90;7.20;;;8.00;99.90;;;;;;5096972;28;20251;-83
2022/11/19 07:07:03;;;;;;;10.00;7.33;;;8.00;99.90;;;;;;5116823;28;20174;-84
2022/11/19 07:09:29;;;;;;;9.53;7.10;;;8.10;99.90;;;;;;5099046;28;20633;-84
2022/11/19 07:11:56;;;;;;;9.53;7.83;;;8.00;99.90;;;;;;5115769;28;20174;-85
2022/11/19 07:14:21;;;;;;;9.43;7.67;;;8.10;99.90;;;;;;5096695;28;20181;-84
2022/11/19 07:16:47;;;;;;;9.10;7.07;;;8.10;99.90;;;;;;5113614;28;20595;-84
2022/11/19 07:19:13;;;;;;;8.43;7.53;;;8.20;99.90;;;;;;5096084;28;20217;-85
2022/11/19 07:21:39;;;;;;;8.40;6.63;;;8.20;99.90;;;;;;5114658;28;20514;-85
2022/11/19 07:24:07;;;;;;;11.53;7.20;;;8.20;99.90;;;;;;5096689;28;20262;-83
2022/11/19 07:26:34;;;;;;;9.27;7.27;;;8.20;99.90;;;;;;5096390;28;20222;-85
2022/11/19 07:29:02;;;;;;;9.23;7.53;;;8.20;99.90;;;;;;5096024;28;20654;-85
2022/11/19 07:31:28;;;;;;;9.33;7.37;;;8.00;99.90;;;;;;5098104;28;20177;-84
2022/11/19 07:33:54;;;;;;;9.43;7.10;;;8.00;99.90;;;;;;5117311;28;20690;-83
2022/11/19 07:36:20;;;;;;;9.37;7.87;;;8.00;99.90;;;;;;5097243;28;20170;-85
2022/11/19 07:38:46;;;;;;;11.03;8.53;;;8.00;99.90;;;;;;5094295;28;20724;-84
2022/11/19 07:43:57;;;;;;;11.73;8.50;;;7.60;99.90;;;;;;5098077;28;20300;-83
2022/11/19 07:46:23;;;;;;;13.10;9.17;;;7.60;99.90;;;;;;5105590;28;20180;-85
2022/11/19 07:49:05;;;;;;;12.77;9.10;;;7.40;99.90;;;;;;5109185;28;20172;-84
2022/11/19 07:51:31;;;;;;;13.80;9.17;;;7.40;99.90;;;;;;5097053;28;20587;-85
2022/11/19 07:53:57;;;;;;;13.07;9.07;;;7.10;99.90;;;;;;5093949;28;20196;-83
2022/11/19 07:56:23;;;;;;;12.60;8.93;;;7.20;99.90;;;;;;5096831;28;20178;-86
2022/11/19 07:58:49;;;;;;;11.37;9.17;;;6.90;99.90;;;;;;5105420;28;20597;-85
2022/11/19 08:01:18;;;;;;;14.50;9.63;;;6.80;99.90;;;;;;5094098;28;20667;-85
2022/11/19 08:03:48;;;;;;;15.00;9.70;;;6.70;99.90;;;;;;5094630;28;20263;-84
2022/11/19 08:06:17;;;;;;;13.43;9.90;;;6.70;99.90;;;;;;5096422;28;20179;-84
2022/11/19 08:08:44;;;;;;;13.07;10.00;;;6.60;99.90;;;;;;5093168;28;20635;-85
2022/11/19 08:11:12;;;;;;;14.77;10.23;;;6.60;99.90;;;;;;5093534;28;20178;-85
2022/11/19 08:13:38;;;;;;;16.83;10.63;;;6.50;99.90;;;;;;5094053;28;20175;-85
2022/11/19 08:16:07;;;;;;;15.10;10.50;;;6.40;99.90;;;;;;5094485;28;20622;-84
2022/11/19 08:18:33;;;;;;;18.23;10.17;;;6.30;99.90;;;;;;5094729;28;20175;-86
2022/11/19 08:21:04;;;;;;;16.77;10.60;;;6.20;99.90;;;;;;5100202;28;20260;-83
2022/11/19 08:23:30;;;;;;;18.17;11.47;;;6.10;99.90;;;;;;5099386;28;20191;-85
2022/11/19 08:25:56;;;;;;;19.27;11.70;;;6.10;99.90;;;;;;5108765;28;20172;-84
2022/11/19 08:28:22;;;;;;;18.30;11.00;;;6.00;99.90;;;;;;5112065;28;20189;-85
2022/11/19 08:30:48;;;;;;;19.83;11.93;;;5.90;99.90;;;;;;5102828;28;20169;-83
2022/11/19 08:33:14;;;;;;;19.30;12.17;;;6.00;99.90;;;;;;5097004;28;20175;-83
2022/11/19 08:35:39;;;;;;;22.27;12.37;;;6.00;99.90;;;;;;5097786;28;20168;-83
2022/11/19 08:38:05;;;;;;;19.33;12.10;;;5.90;99.90;;;;;;5096149;28;20238;-86
2022/11/19 08:40:31;;;;;;;21.57;12.77;;;5.80;99.90;;;;;;5096785;28;20217;-86
2022/11/19 08:43:00;;;;;;;22.00;12.57;;;5.70;99.90;;;;;;5106018;28;20286;-86
2022/11/19 08:45:54;;;;;;;22.23;12.57;;;5.80;99.90;;;;;;5097227;28;20181;-87
2022/11/19 08:48:23;;;;;;;22.63;13.53;;;5.70;99.90;;;;;;5097563;28;20160;-87
2022/11/19 08:50:48;;;;;;;21.23;12.93;;;5.80;99.90;;;;;;5096245;28;20209;-84
2022/11/19 08:53:14;;;;;;;23.40;13.33;;;5.60;99.90;;;;;;5095937;28;20171;-84
2022/11/19 08:55:40;;;;;;;23.27;13.17;;;5.50;99.90;;;;;;5097182;28;20525;-82
2022/11/19 08:58:07;;;;;;;19.87;12.37;;;5.40;99.90;;;;;;5095947;28;20179;-85
2022/11/19 09:00:35;;;;;;;21.63;12.50;;;5.40;99.90;;;;;;5096093;28;20525;-85
2022/11/19 09:03:01;;;;;;;21.27;12.37;;;5.40;99.90;;;;;;5095738;28;20179;-83
2022/11/19 09:05:27;;;;;;;23.57;12.57;;;5.40;99.90;;;;;;5096214;28;20315;-83
2022/11/19 09:07:56;;;;;;;22.70;12.23;;;5.30;99.90;;;;;;5098529;28;20173;-84
2022/11/19 09:10:22;;;;;;;24.33;13.20;;;5.10;99.90;;;;;;5095396;28;20514;-84
2022/11/19 09:12:48;;;;;;;21.17;12.20;;;5.30;99.90;;;;;;5097101;28;20169;-85
2022/11/19 09:15:14;;;;;;;20.97;12.67;;;5.30;99.90;;;;;;5096840;28;20227;-83
2022/11/19 09:17:40;;;;;;;21.07;12.90;;;5.10;99.90;;;;;;5106672;28;20174;-84
2022/11/19 09:20:06;;;;;;;22.40;12.90;;;5.20;99.90;;;;;;5102526;28;20216;-86
2022/11/19 09:22:32;;;;;;;23.43;13.73;;;5.30;99.90;;;;;;5097082;28;20623;-84
2022/11/19 09:24:58;;;;;;;20.07;12.60;;;5.30;99.90;;;;;;5099649;28;20179;-85
2022/11/19 09:27:24;;;;;;;21.33;12.57;;;5.20;99.90;;;;;;5094543;28;20175;-83
2022/11/19 09:29:50;;;;;;;21.37;12.17;;;5.10;99.90;;;;;;5087972;28;20183;-81
2022/11/19 09:32:16;;;;;;;20.73;12.43;;;5.20;99.90;;;;;;5083114;28;20171;-81
2022/11/19 09:34:42;;;;;;;22.87;13.43;;;5.20;99.90;;;;;;5077125;28;20311;-81
2022/11/19 09:37:08;;;;;;;22.93;12.87;;;5.10;99.90;;;;;;5076248;28;20723;-84
2022/11/19 09:39:34;;;;;;;20.47;12.67;;;5.10;99.90;;;;;;5093833;28;20242;-85
2022/11/19 09:42:12;;;;;;;22.60;12.57;;;5.20;99.90;;;;;;5098511;28;20171;-85
2022/11/19 09:44:47;;;;;;;21.23;12.73;;;5.20;99.90;;;;;;5096164;28;20266;-85
2022/11/19 09:47:28;;;;;;;19.80;11.70;;;5.10;99.90;;;;;;5096335;28;20170;-85
2022/11/19 09:50:18;;;;;;;19.73;12.27;;;5.10;99.90;;;;;;5094526;28;20170;-84
2022/11/19 09:53:11;;;;;;;21.20;12.10;;;5.10;99.90;;;;;;5095867;28;20159;-83
2022/11/19 09:55:41;;;;;;;24.15;15.32;;;5.00;99.90;;;;;;5090054;28;20436;-86
2022/11/19 09:58:15;;;;;;;20.33;12.43;;;5.10;99.90;;;;;;5101541;28;20183;-84
2022/11/19 10:00:43;;;;;;;17.60;11.03;;;5.30;99.90;;;;;;5101057;28;20237;-85
2022/11/19 10:03:19;;;;;;;20.37;11.50;;;5.30;99.90;;;;;;5096548;28;20232;-86
2022/11/19 10:05:53;;;;;;;16.47;10.13;;;5.30;99.90;;;;;;5098551;28;20178;-84
2022/11/19 10:08:38;;;;;;;19.17;11.07;;;5.30;99.90;;;;;;5098127;28;20225;-85
2022/11/19 10:11:30;;;;;;;14.87;9.33;;;5.40;99.90;;;;;;5100164;28;20187;-83
2022/11/19 10:14:17;;;;;;;16.27;9.53;;;5.50;99.90;;;;;;5094624;28;20190;-83
2022/11/19 10:17:24;;;;;;;14.60;9.60;;;5.60;99.90;;;;;;5096465;28;20172;-84
2022/11/19 10:20:08;;;;;;;15.77;9.90;;;5.60;99.90;;;;;;5045642;28;20260;-83
2022/11/19 10:22:38;;;;;;;15.33;9.70;;;5.60;99.90;;;;;;5114427;28;20159;-83
2022/11/19 10:25:31;;;;;;;14.87;9.70;;;5.60;99.90;;;;;;5106964;28;20188;-86
2022/11/19 10:28:12;;;;;;;15.83;9.60;;;5.70;99.90;;;;;;5100107;28;20721;-84
2022/11/19 10:30:40;;;;;;;13.07;8.80;;;5.60;99.90;;;;;;5097466;28;20194;-85
2022/11/19 10:33:30;;;;;;;13.73;8.93;;;5.60;99.90;;;;;;5094580;28;20175;-83
2022/11/19 10:36:04;;;;;;;17.07;10.17;;;5.60;99.90;;;;;;5095452;28;20183;-84
2022/11/19 10:38:50;;;;;;;14.13;9.53;;;5.50;99.90;;;;;;5104787;28;20232;-84
2022/11/19 10:41:38;;;;;;;14.07;9.27;;;5.60;99.90;;;;;;5098047;28;20190;-86
2022/11/19 10:44:38;;;;;;;11.87;8.07;;;5.60;99.90;;;;;;5096444;28;20227;-84
2022/11/19 10:47:08;;;;;;;14.07;8.23;;;5.50;99.90;;;;;;5097223;28;20251;-83
2022/11/19 10:49:38;;;;;;;14.03;8.43;;;5.60;99.90;;;;;;5116443;28;20171;-82
2022/11/19 10:52:09;;;;;;;11.93;7.83;;;5.70;99.90;;;;;;5109500;28;20172;-82
2022/11/19 10:54:40;;;;;;;14.63;8.80;;;5.60;99.90;;;;;;5104959;28;20223;-83
2022/11/19 10:57:15;;;;;;;11.67;7.60;;;5.60;99.90;;;;;;5098656;28;20605;-84
2022/11/19 10:59:42;;;;;;;11.00;7.70;;;5.60;99.90;;;;;;5098903;28;20224;-85
2022/11/19 11:02:28;;;;;;;12.33;7.63;;;5.50;99.90;;;;;;5134047;27;20191;-82
2022/11/19 11:05:05;;;;;;;10.80;7.27;;;5.50;99.90;;;;;;5145292;27;20159;-85
2022/11/19 11:07:54;;;;;;;11.63;7.23;;;5.50;99.90;;;;;;5140381;27;20171;-84
2022/11/19 11:10:41;;;;;;;10.60;7.07;;;5.60;99.90;;;;;;5139931;27;20171;-88
2022/11/19 11:16:17;;;;;;;12.80;7.80;;;5.70;99.90;;;;;;5136211;27;20805;-84
2022/11/19 11:18:44;;;;;;;12.80;8.03;;;5.60;99.90;;;;;;5077698;28;20163;-83
2022/11/19 11:21:33;;;;;;;11.33;7.30;;;5.60;99.90;;;;;;5096751;28;20199;-85
2022/11/19 11:24:01;;;;;;;10.37;7.60;;;5.70;99.90;;;;;;5068438;28;20179;-83
2022/11/19 11:26:32;;;;;;;9.50;7.00;;;5.70;99.90;;;;;;5097191;28;20195;-84
2022/11/19 11:29:07;;;;;;;10.00;6.73;;;5.90;99.90;;;;;;5095088;28;20152;-83
2022/11/19 11:31:41;;;;;;;11.83;6.80;;;5.90;99.90;;;;;;5095837;28;20162;-84
2022/11/19 11:34:27;;;;;;;9.97;6.80;;;5.90;99.90;;;;;;5098593;28;20615;-85
2022/11/19 11:36:54;;;;;;;10.20;6.70;;;5.90;99.90;;;;;;5078402;28;20174;-82
2022/11/19 11:39:26;;;;;;;11.47;6.80;;;5.90;99.90;;;;;;5092338;28;20227;-82
2022/11/19 11:41:53;;;;;;;10.40;7.20;;;5.80;99.90;;;;;;5055942;28;20173;-87
2022/11/19 11:44:22;;;;;;;9.53;6.37;;;5.70;99.90;;;;;;5058458;28;20182;-85
2022/11/19 11:46:54;;;;;;;10.47;7.50;;;5.80;99.90;;;;;;5070540;28;20309;-85
2022/11/19 11:49:40;;;;;;;9.63;7.00;;;5.90;99.90;;;;;;5094775;28;20177;-82
2022/11/19 11:52:09;;;;;;;9.50;6.73;;;6.00;99.90;;;;;;5095588;28;20640;-83
2022/11/19 11:54:36;;;;;;;8.17;6.87;;;6.00;99.90;;;;;;5094432;28;20639;-86
2022/11/19 11:57:16;;;;;;;11.13;6.80;;;6.00;99.90;;;;;;5098771;28;20194;-82
2022/11/19 11:59:43;;;;;;;9.97;7.00;;;6.00;99.90;;;;;;5072263;28;20211;-83
2022/11/19 12:02:20;;;;;;;10.73;6.93;;;6.00;99.90;;;;;;5092712;28;20181;-85
2022/11/19 12:04:50;;;;;;;9.67;6.33;;;6.00;99.90;;;;;;5075042;28;20192;-82
2022/11/19 12:07:43;;;;;;;11.33;7.07;;;6.00;99.90;;;;;;5074272;28;20192;-87
2022/11/19 12:10:17;;;;;;;13.73;8.10;;;5.90;99.90;;;;;;5076435;28;20175;-88
2022/11/19 12:12:51;;;;;;;12.53;7.17;;;5.90;99.90;;;;;;5077887;28;20266;-87
2022/11/19 12:15:43;;;;;;;10.53;6.67;;;6.00;99.90;;;;;;5078932;28;20617;-88
2022/11/19 12:18:19;;;;;;;9.57;6.50;;;6.00;99.90;;;;;;5080462;28;20236;-85
2022/11/19 12:21:09;;;;;;;9.80;6.80;;;6.00;99.90;;;;;;5087611;28;20220;-87
2022/11/19 12:23:47;;;;;;;12.63;6.87;;;6.10;99.90;;;;;;5093722;28;20177;-84
2022/11/19 12:26:37;;;;;;;10.53;6.37;;;6.10;99.90;;;;;;5090315;28;20173;-88
2022/11/19 12:29:22;;;;;;;9.80;6.67;;;6.00;99.90;;;;;;5074257;28;20166;-85
2022/11/19 12:31:58;;;;;;;9.63;6.63;;;6.00;99.90;;;;;;5075447;28;20248;-90
2022/11/19 12:34:27;;;;;;;10.27;7.37;;;6.00;99.90;;;;;;5077818;28;20646;-89
2022/11/19 12:37:11;;;;;;;9.97;7.10;;;6.10;99.90;;;;;;5090033;28;20179;-85
2022/11/19 12:39:54;;;;;;;8.93;6.70;;;6.00;99.90;;;;;;5117448;28;20258;-89
2022/11/19 12:42:47;;;;;;;8.43;6.53;;;6.00;99.90;;;;;;5118190;28;20189;-89
2022/11/19 12:45:35;;;;;;;10.87;7.23;;;6.00;99.90;;;;;;5098750;28;20243;-86
2022/11/19 12:48:26;;;;;;;9.33;6.77;;;6.00;99.90;;;;;;5096550;28;20184;-88
2022/11/19 12:51:07;;;;;;;8.70;6.63;;;6.10;99.90;;;;;;5098636;28;20699;-86
2022/11/19 12:53:54;;;;;;;12.50;6.80;;;6.10;99.90;;;;;;5100159;28;20192;-85
2022/11/19 12:56:42;;;;;;;9.70;6.60;;;6.00;99.90;;;;;;5124471;28;20169;-90
2022/11/19 12:59:14;;;;;;;8.70;6.33;;;6.10;99.90;;;;;;5119283;28;20170;-89
2022/11/19 13:01:48;;;;;;;10.43;7.33;;;6.10;99.90;;;;;;5099546;28;20189;-89
2022/11/19 13:04:14;;;;;;;9.70;6.83;;;6.20;99.90;;;;;;5118793;28;20153;-88
2022/11/19 13:06:53;;;;;;;12.93;8.30;;;6.20;99.90;;;;;;5100714;28;20689;-92
2022/11/19 13:09:42;;;;;;;12.93;7.60;;;6.20;99.90;;;;;;5099663;28;20177;-89
2022/11/19 13:12:13;;;;;;;12.20;7.60;;;6.40;99.90;;;;;;5101770;28;20178;-88
2022/11/19 13:14:41;;;;;;;11.83;7.33;;;6.40;99.90;;;;;;5122903;28;20245;-88
2022/11/19 13:17:30;;;;;;;10.80;7.20;;;6.40;99.90;;;;;;5125367;28;20248;-90
2022/11/19 13:20:00;;;;;;;9.27;7.00;;;6.40;99.90;;;;;;5105211;28;20212;-87
2022/11/19 13:22:37;;;;;;;9.97;7.13;;;6.30;99.90;;;;;;5100345;28;20163;-87
2022/11/19 13:25:19;;;;;;;14.17;7.43;;;6.20;99.90;;;;;;5100755;28;20170;-89
2022/11/19 13:27:47;;;;;;;10.50;7.47;;;6.20;99.90;;;;;;5105618;28;20203;-89
2022/11/19 13:30:18;;;;;;;11.07;7.50;;;6.20;99.90;;;;;;5101549;28;20185;-87
2022/11/19 13:33:01;;;;;;;10.87;7.90;;;6.20;99.90;;;;;;5120063;28;20155;-84